createdAt,value
2023-01-05T00:04:31.784Z,97335.44
2023-01-05T00:09:34.252Z,97319.25
2023-01-05T00:14:54.417Z,97330.44
2023-01-05T00:20:14.435Z,97320.63
2023-01-05T00:25:17.709Z,97337.91
2023-01-05T00:30:23.236Z,97340.00
2023-01-05T00:35:25.674Z,97322.78
2023-01-05T00:40:27.228Z,97341.69
2023-01-05T00:45:28.677Z,97331.66
2023-01-05T00:50:30.188Z,97338.84
2023-01-05T00:55:31.494Z,97339.66
2023-01-05T01:00:32.835Z,97328.97
2023-01-05T01:05:34.214Z,97336.72
2023-01-05T01:10:35.589Z,97343.50
2023-01-05T01:15:37.074Z,97324.16
2023-01-05T01:20:38.934Z,97327.69
2023-01-05T01:25:40.357Z,97325.03
2023-01-05T01:30:41.744Z,97323.16
2023-01-05T01:35:43.100Z,97329.13
2023-01-05T01:40:45.469Z,97328.94
2023-01-05T01:45:47.009Z,97340.22
2023-01-05T01:50:51.406Z,97343.53
2023-01-05T01:55:54.038Z,97334.75
2023-01-05T02:00:56.050Z,97336.84
2023-01-05T02:05:58.680Z,97338.47
2023-01-05T02:11:22.713Z,97333.16
2023-01-05T02:16:34.229Z,97330.88
2023-01-05T02:21:54.442Z,97324.31
2023-01-05T02:27:11.804Z,97307.09
2023-01-05T02:32:13.293Z,97321.88
2023-01-05T02:37:21.250Z,97315.63
2023-01-05T02:42:23.520Z,97322.44
2023-01-05T02:47:25.368Z,97317.50
2023-01-05T02:52:27.518Z,97322.06
2023-01-05T02:57:47.797Z,97319.03
2023-01-05T03:02:57.396Z,97309.66
2023-01-05T03:08:11.007Z,97304.16
2023-01-05T03:13:36.591Z,97300.72
2023-01-05T03:18:59.927Z,97309.97
2023-01-05T03:24:22.043Z,97312.47
2023-01-05T03:29:45.896Z,97301.38
2023-01-05T03:35:20.675Z,97317.84
2023-01-05T03:40:28.405Z,97314.75
2023-01-05T03:45:37.013Z,97320.09
2023-01-05T03:50:38.530Z,97310.66
2023-01-05T03:55:39.981Z,97326.69
2023-01-05T04:00:42.402Z,97312.31
2023-01-05T04:05:46.662Z,97330.19
2023-01-05T04:10:47.994Z,97354.22
2023-01-05T04:15:49.495Z,97341.06
2023-01-05T04:20:50.953Z,97338.31
2023-01-05T04:25:52.337Z,97363.88
2023-01-05T04:30:57.777Z,97395.09
2023-01-05T04:36:00.239Z,97348.88
2023-01-05T04:41:04.246Z,97362.75
2023-01-05T04:46:07.329Z,97393.16
2023-01-05T04:51:09.853Z,97393.22
2023-01-05T04:56:13.173Z,97385.84
2023-01-05T05:01:17.782Z,97398.94
2023-01-05T05:06:25.189Z,97397.53
2023-01-05T05:11:28.653Z,97400.25
2023-01-05T05:16:31.132Z,97399.13
2023-01-05T05:21:33.629Z,97403.03
2023-01-05T05:26:35.408Z,97413.09
2023-01-05T05:31:37.312Z,97447.22
2023-01-05T05:36:38.716Z,97423.53
2023-01-05T05:41:40.120Z,97429.50
2023-01-05T05:46:41.555Z,97431.19
2023-01-05T05:51:42.977Z,97428.16
2023-01-05T05:56:44.295Z,97446.66
2023-01-05T06:01:46.068Z,97448.47
2023-01-05T06:06:47.500Z,97440.31
2023-01-05T06:11:48.810Z,97442.28
2023-01-05T06:16:50.373Z,97440.38
2023-01-05T06:21:51.966Z,97460.28
2023-01-05T06:26:53.284Z,97447.28
2023-01-05T06:31:54.844Z,97452.88
2023-01-05T06:37:01.872Z,97464.81
2023-01-05T06:42:03.714Z,97468.78
2023-01-05T06:47:05.099Z,97470.06
2023-01-05T06:52:10.818Z,97454.19
2023-01-05T06:57:15.525Z,97466.75
2023-01-05T07:02:17.534Z,97468.91
2023-01-05T07:07:18.952Z,97479.81
2023-01-05T07:12:20.319Z,97497.56
2023-01-05T07:17:21.633Z,97494.34
2023-01-05T07:22:23.082Z,97522.63
2023-01-05T07:27:24.475Z,97523.25
2023-01-05T07:32:25.887Z,97514.91
2023-01-05T07:37:27.478Z,97525.56
2023-01-05T07:42:30.443Z,97532.34
2023-01-05T07:47:31.805Z,97534.84
2023-01-05T07:52:33.221Z,97540.41
2023-01-05T07:57:34.576Z,97528.91
2023-01-05T08:02:36.455Z,97559.59
2023-01-05T08:07:38.179Z,97558.28
2023-01-05T08:12:59.474Z,97554.63
2023-01-05T08:18:00.776Z,97575.19
2023-01-05T08:23:02.137Z,97563.94
2023-01-05T08:28:03.560Z,97562.50
2023-01-05T08:33:05.183Z,97557.38
2023-01-05T08:38:06.709Z,97568.94
2023-01-05T08:43:08.228Z,97580.06
2023-01-05T08:48:10.377Z,97591.19
2023-01-05T08:53:11.903Z,97605.47
2023-01-05T08:58:13.275Z,97596.16
2023-01-05T09:03:14.775Z,97596.22
2023-01-05T09:08:16.146Z,97610.81
2023-01-05T09:13:17.568Z,97605.13
2023-01-05T09:18:18.929Z,97602.72
2023-01-05T09:23:20.268Z,97616.00
2023-01-05T09:28:21.649Z,97634.59
2023-01-05T09:33:23.074Z,97619.56
2023-01-05T09:38:24.570Z,97625.13
2023-01-05T09:43:28.901Z,97649.88
2023-01-05T09:48:36.494Z,97638.69
2023-01-05T09:53:38.941Z,97629.94
2023-01-05T09:58:42.692Z,97632.91
2023-01-05T10:04:05.240Z,97627.97
2023-01-05T10:09:08.047Z,97647.91
2023-01-05T10:14:45.681Z,97671.53
2023-01-05T10:19:47.970Z,97659.63
2023-01-05T10:24:59.037Z,97675.31
2023-01-05T10:30:22.383Z,97684.00
2023-01-05T10:35:59.768Z,97667.69
2023-01-05T10:40:56.655Z,97676.91
2023-01-05T10:46:30.684Z,97682.16
2023-01-05T10:51:20.632Z,97678.44
2023-01-05T10:56:28.502Z,97683.09
2023-01-05T11:01:30.660Z,97689.78
2023-01-05T11:06:33.903Z,97699.13
2023-01-05T11:11:35.263Z,97703.78
2023-01-05T11:16:38.195Z,97681.84
2023-01-05T11:21:45.085Z,97696.47
2023-01-05T11:26:50.471Z,97668.50
2023-01-05T11:31:53.548Z,97683.78
2023-01-05T11:37:17.918Z,97697.09
2023-01-05T11:42:26.357Z,97690.13
2023-01-05T11:47:30.824Z,97721.38
2023-01-05T11:52:34.519Z,97701.69
2023-01-05T11:57:38.941Z,97700.47
2023-01-05T12:02:59.261Z,97691.84
2023-01-05T12:08:24.160Z,97708.81
2023-01-05T12:13:44.243Z,97705.41
2023-01-05T12:18:48.643Z,97715.50
2023-01-05T12:23:49.941Z,97706.91
2023-01-05T12:30:02.103Z,97714.75
2023-01-05T12:34:18.681Z,97722.06
2023-01-05T12:39:19.994Z,97743.25
2023-01-05T12:44:30.489Z,97744.03
2023-01-05T12:49:35.172Z,97760.13
2023-01-05T12:54:45.557Z,97758.69
2023-01-05T12:59:46.906Z,97759.38
2023-01-05T13:04:56.540Z,97748.06
2023-01-05T13:10:03.031Z,97769.63
2023-01-05T13:15:10.903Z,97777.09
2023-01-05T13:20:21.344Z,97778.94
2023-01-05T13:25:24.503Z,97763.31
2023-01-05T13:30:28.060Z,97802.56
2023-01-05T13:35:35.611Z,97774.13
2023-01-05T13:40:42.905Z,97798.22
2023-01-05T13:45:47.274Z,97795.88
2023-01-05T13:51:00.526Z,97812.84
2023-01-05T13:56:06.386Z,97860.22
2023-01-05T14:01:14.396Z,97815.19
2023-01-05T14:06:21.281Z,97837.81
2023-01-05T14:11:23.826Z,97870.91
2023-01-05T14:16:34.769Z,97876.22
2023-01-05T14:21:48.460Z,97889.69
2023-01-05T14:26:58.922Z,97897.16
2023-01-05T14:32:05.657Z,97908.66
2023-01-05T14:37:07.198Z,97918.94
2023-01-05T14:42:11.556Z,97926.41
2023-01-05T14:47:13.207Z,97927.56
2023-01-05T14:52:16.220Z,97939.88
2023-01-05T14:57:26.836Z,97944.50
2023-01-05T15:02:31.241Z,97966.09
2023-01-05T15:07:48.904Z,97978.22
2023-01-05T15:12:52.433Z,97983.34
2023-01-05T15:18:00.664Z,97983.28
2023-01-05T15:23:05.185Z,97956.66
2023-01-05T15:28:18.748Z,97947.00
2023-01-05T15:33:27.850Z,97949.97
2023-01-05T15:38:30.018Z,97962.56
2023-01-05T15:43:32.148Z,97954.91
2023-01-05T15:48:41.149Z,98006.38
2023-01-05T15:53:52.205Z,98015.63
2023-01-05T15:58:53.620Z,98018.59
2023-01-05T16:04:07.941Z,98025.91
2023-01-05T16:09:19.658Z,98035.81
2023-01-05T16:14:25.680Z,98050.56
2023-01-05T16:19:33.612Z,98057.69
2023-01-05T16:24:43.073Z,98057.84
2023-01-05T16:29:45.513Z,98061.34
2023-01-05T16:34:46.885Z,98060.66
2023-01-05T16:39:48.225Z,98076.75
2023-01-05T16:44:53.473Z,98082.06
2023-01-05T16:49:58.345Z,98085.84
2023-01-05T16:55:38.388Z,98091.28
2023-01-05T17:00:39.797Z,98091.28
2023-01-05T17:05:41.136Z,98090.47
2023-01-05T17:10:42.711Z,98100.94
2023-01-05T17:15:45.062Z,98093.81
2023-01-05T17:20:46.829Z,98089.47
2023-01-05T17:25:48.431Z,98094.94
2023-01-05T17:30:50.407Z,98087.13
2023-01-05T17:35:51.948Z,98087.28
2023-01-05T17:40:53.300Z,98129.91
2023-01-05T17:45:54.688Z,98138.56
2023-01-05T17:50:56.020Z,98140.50
2023-01-05T17:55:57.360Z,98153.13
2023-01-05T18:00:58.731Z,98136.69
2023-01-05T18:06:00.744Z,98142.28
2023-01-05T18:11:02.713Z,98149.72
2023-01-05T18:16:08.389Z,98158.94
2023-01-05T18:21:09.787Z,98156.75
2023-01-05T18:26:11.192Z,98163.91
2023-01-05T18:31:13.520Z,98172.81
2023-01-05T18:36:15.003Z,98180.94
2023-01-05T18:41:16.386Z,98198.00
2023-01-05T18:46:17.783Z,98198.59
2023-01-05T18:51:19.203Z,98216.22
2023-01-05T18:56:20.562Z,98220.69
2023-01-05T19:01:23.246Z,98224.88
2023-01-05T19:06:25.293Z,98220.41
2023-01-05T19:11:27.691Z,98229.34
2023-01-05T19:16:30.217Z,98225.56
2023-01-05T19:21:32.459Z,98218.81
2023-01-05T19:26:34.224Z,98216.69
2023-01-05T19:31:35.789Z,98211.94
2023-01-05T19:36:37.145Z,98218.91
2023-01-05T19:41:39.202Z,98224.22
2023-01-05T19:46:40.922Z,98234.31
2023-01-05T19:51:42.340Z,98237.38
2023-01-05T19:56:44.486Z,98235.44
2023-01-05T20:01:45.951Z,98244.09
2023-01-05T20:06:47.413Z,98243.38
2023-01-05T20:11:51.494Z,98240.75
2023-01-05T20:16:54.215Z,98246.03
2023-01-05T20:21:56.567Z,98269.75
2023-01-05T20:26:59.997Z,98273.81
2023-01-05T20:32:05.125Z,98270.03
2023-01-05T20:37:07.852Z,98271.69
2023-01-05T20:42:11.705Z,98280.63
2023-01-05T20:47:15.107Z,98282.88
2023-01-05T20:52:17.579Z,98296.75
2023-01-05T20:57:18.985Z,98300.81
2023-01-05T21:02:24.253Z,98295.56
2023-01-05T21:07:26.032Z,98297.78
2023-01-05T21:12:27.393Z,98309.47
2023-01-05T21:17:28.730Z,98322.28
2023-01-05T21:22:30.057Z,98328.97
2023-01-05T21:27:31.609Z,98331.88
2023-01-05T21:32:32.984Z,98326.13
2023-01-05T21:37:34.552Z,98333.78
2023-01-05T21:42:42.811Z,98336.97
2023-01-05T21:47:44.502Z,98329.88
2023-01-05T21:53:04.340Z,98330.56
2023-01-05T21:58:05.669Z,98336.03
2023-01-05T22:03:07.006Z,98331.13
2023-01-05T22:08:08.378Z,98337.72
2023-01-05T22:13:09.761Z,98340.38
2023-01-05T22:18:11.085Z,98338.56
2023-01-05T22:23:16.400Z,98344.41
2023-01-05T22:28:17.713Z,98332.53
2023-01-05T22:33:19.099Z,98333.91
2023-01-05T22:38:20.421Z,98341.56
2023-01-05T22:43:21.947Z,98330.25
2023-01-05T22:48:23.299Z,98339.75
2023-01-05T22:53:24.706Z,98337.22
2023-01-05T22:58:26.577Z,98346.03
2023-01-05T23:03:27.914Z,98360.38
2023-01-05T23:08:29.673Z,98355.91
2023-01-05T23:13:30.997Z,98362.59
2023-01-05T23:18:33.629Z,98359.34
2023-01-05T23:23:35.484Z,98354.44
2023-01-05T23:28:37.036Z,98353.00
2023-01-05T23:33:38.421Z,98358.31
2023-01-05T23:38:39.950Z,98353.84
2023-01-05T23:43:42.050Z,98356.34
2023-01-05T23:48:43.802Z,98347.16
2023-01-05T23:53:46.254Z,98357.19
2023-01-05T23:58:48.160Z,98346.81
